sensor_id;sensor_type;location;lat;lon;timestamp;temperature;humidity
63017;DHT22;50274;45.640;11.756;2024-03-02T00:02:20;10.90;86.60
63017;DHT22;50274;45.640;11.756;2024-03-02T00:04:45;10.90;86.50
63017;DHT22;50274;45.640;11.756;2024-03-02T00:07:14;10.90;86.60
63017;DHT22;50274;45.640;11.756;2024-03-02T00:09:40;10.90;86.70
63017;DHT22;50274;45.640;11.756;2024-03-02T00:12:06;10.90;86.60
63017;DHT22;50274;45.640;11.756;2024-03-02T00:14:32;10.90;86.80
63017;DHT22;50274;45.640;11.756;2024-03-02T00:16:59;10.90;86.60
63017;DHT22;50274;45.640;11.756;2024-03-02T00:19:25;10.90;86.60
63017;DHT22;50274;45.640;11.756;2024-03-02T00:21:50;10.90;86.60
63017;DHT22;50274;45.640;11.756;2024-03-02T00:24:32;10.90;86.60
63017;DHT22;50274;45.640;11.756;2024-03-02T00:26:59;10.90;86.70
63017;DHT22;50274;45.640;11.756;2024-03-02T00:29:25;10.80;86.70
63017;DHT22;50274;45.640;11.756;2024-03-02T00:31:51;10.80;86.80
63017;DHT22;50274;45.640;11.756;2024-03-02T00:34:17;10.80;86.80
63017;DHT22;50274;45.640;11.756;2024-03-02T00:36:43;10.80;86.90
63017;DHT22;50274;45.640;11.756;2024-03-02T00:39:12;10.80;86.80
63017;DHT22;50274;45.640;11.756;2024-03-02T00:41:41;10.80;86.80
63017;DHT22;50274;45.640;11.756;2024-03-02T00:44:10;10.80;86.90
63017;DHT22;50274;45.640;11.756;2024-03-02T00:46:41;10.80;86.90
63017;DHT22;50274;45.640;11.756;2024-03-02T00:51:39;10.80;87.10
63017;DHT22;50274;45.640;11.756;2024-03-02T00:54:07;10.80;87.00
63017;DHT22;50274;45.640;11.756;2024-03-02T00:56:33;10.80;87.10
63017;DHT22;50274;45.640;11.756;2024-03-02T00:59:00;10.80;87.10
63017;DHT22;50274;45.640;11.756;2024-03-02T01:01:26;10.80;87.10
63017;DHT22;50274;45.640;11.756;2024-03-02T01:03:52;10.80;87.20
63017;DHT22;50274;45.640;11.756;2024-03-02T01:06:18;10.80;87.10
63017;DHT22;50274;45.640;11.756;2024-03-02T01:08:45;10.80;87.10
63017;DHT22;50274;45.640;11.756;2024-03-02T01:11:11;10.80;87.10
63017;DHT22;50274;45.640;11.756;2024-03-02T01:13:37;10.80;87.10
63017;DHT22;50274;45.640;11.756;2024-03-02T01:16:03;10.80;87.10
63017;DHT22;50274;45.640;11.756;2024-03-02T01:18:29;10.80;87.10
63017;DHT22;50274;45.640;11.756;2024-03-02T01:20:56;10.80;87.10
63017;DHT22;50274;45.640;11.756;2024-03-02T01:23:25;10.80;87.10
63017;DHT22;50274;45.640;11.756;2024-03-02T01:25:51;10.80;87.10
63017;DHT22;50274;45.640;11.756;2024-03-02T01:28:18;10.90;87.10
63017;DHT22;50274;45.640;11.756;2024-03-02T01:30:44;10.80;87.10
63017;DHT22;50274;45.640;11.756;2024-03-02T01:33:10;10.90;87.10
63017;DHT22;50274;45.640;11.756;2024-03-02T01:35:36;10.90;87.10
63017;DHT22;50274;45.640;11.756;2024-03-02T01:38:03;10.90;87.00
63017;DHT22;50274;45.640;11.756;2024-03-02T01:40:29;10.80;87.00
63017;DHT22;50274;45.640;11.756;2024-03-02T01:42:55;10.80;87.00
63017;DHT22;50274;45.640;11.756;2024-03-02T01:45:23;10.80;86.90
63017;DHT22;50274;45.640;11.756;2024-03-02T01:47:49;10.80;86.90
63017;DHT22;50274;45.640;11.756;2024-03-02T01:50:16;10.80;86.90
63017;DHT22;50274;45.640;11.756;2024-03-02T01:52:49;10.80;86.80
63017;DHT22;50274;45.640;11.756;2024-03-02T01:55:15;10.70;86.80
63017;DHT22;50274;45.640;11.756;2024-03-02T01:57:41;10.70;86.70
63017;DHT22;50274;45.640;11.756;2024-03-02T02:00:08;10.70;86.70
63017;DHT22;50274;45.640;11.756;2024-03-02T02:02:35;10.70;86.70
63017;DHT22;50274;45.640;11.756;2024-03-02T02:05:01;10.70;86.70
63017;DHT22;50274;45.640;11.756;2024-03-02T02:07:26;10.70;86.70
63017;DHT22;50274;45.640;11.756;2024-03-02T02:09:52;10.70;86.80
63017;DHT22;50274;45.640;11.756;2024-03-02T02:12:18;10.70;86.70
63017;DHT22;50274;45.640;11.756;2024-03-02T02:14:48;10.70;86.70
63017;DHT22;50274;45.640;11.756;2024-03-02T02:17:16;10.60;86.60
63017;DHT22;50274;45.640;11.756;2024-03-02T02:19:42;10.70;86.70
63017;DHT22;50274;45.640;11.756;2024-03-02T02:22:11;10.70;86.70
63017;DHT22;50274;45.640;11.756;2024-03-02T02:24:41;10.60;86.60
63017;DHT22;50274;45.640;11.756;2024-03-02T02:27:07;10.70;86.60
63017;DHT22;50274;45.640;11.756;2024-03-02T02:29:34;10.70;86.60
63017;DHT22;50274;45.640;11.756;2024-03-02T02:32:00;10.70;86.30
63017;DHT22;50274;45.640;11.756;2024-03-02T02:34:26;10.70;86.30
63017;DHT22;50274;45.640;11.756;2024-03-02T02:36:52;10.70;86.20
63017;DHT22;50274;45.640;11.756;2024-03-02T02:39:20;10.70;86.10
63017;DHT22;50274;45.640;11.756;2024-03-02T02:41:47;10.60;86.10
63017;DHT22;50274;45.640;11.756;2024-03-02T02:44:12;10.70;86.10
63017;DHT22;50274;45.640;11.756;2024-03-02T02:46:41;10.70;86.00
63017;DHT22;50274;45.640;11.756;2024-03-02T02:49:07;10.70;85.90
63017;DHT22;50274;45.640;11.756;2024-03-02T02:51:33;10.70;85.90
63017;DHT22;50274;45.640;11.756;2024-03-02T02:53:59;10.70;85.80
63017;DHT22;50274;45.640;11.756;2024-03-02T02:56:25;10.70;85.70
63017;DHT22;50274;45.640;11.756;2024-03-02T02:58:51;10.70;85.60
63017;DHT22;50274;45.640;11.756;2024-03-02T03:01:17;10.70;85.60
63017;DHT22;50274;45.640;11.756;2024-03-02T03:03:44;10.70;85.60
63017;DHT22;50274;45.640;11.756;2024-03-02T03:06:10;10.70;85.60
63017;DHT22;50274;45.640;11.756;2024-03-02T03:08:36;10.70;85.50
63017;DHT22;50274;45.640;11.756;2024-03-02T03:11:02;10.70;85.50
63017;DHT22;50274;45.640;11.756;2024-03-02T03:13:28;10.70;85.40
63017;DHT22;50274;45.640;11.756;2024-03-02T03:15:54;10.70;85.40
63017;DHT22;50274;45.640;11.756;2024-03-02T03:18:20;10.70;85.30
63017;DHT22;50274;45.640;11.756;2024-03-02T03:20:46;10.70;85.20
63017;DHT22;50274;45.640;11.756;2024-03-02T03:23:11;10.70;85.20
63017;DHT22;50274;45.640;11.756;2024-03-02T03:25:41;10.70;85.10
63017;DHT22;50274;45.640;11.756;2024-03-02T03:28:07;10.70;85.00
63017;DHT22;50274;45.640;11.756;2024-03-02T03:30:37;10.70;84.90
63017;DHT22;50274;45.640;11.756;2024-03-02T03:33:03;10.70;84.80
63017;DHT22;50274;45.640;11.756;2024-03-02T03:35:29;10.70;84.90
63017;DHT22;50274;45.640;11.756;2024-03-02T03:37:55;10.60;85.00
63017;DHT22;50274;45.640;11.756;2024-03-02T03:40:21;10.60;85.00
63017;DHT22;50274;45.640;11.756;2024-03-02T03:42:47;10.60;85.10
63017;DHT22;50274;45.640;11.756;2024-03-02T03:45:14;10.60;85.10
63017;DHT22;50274;45.640;11.756;2024-03-02T03:47:40;10.60;85.20
63017;DHT22;50274;45.640;11.756;2024-03-02T03:50:06;10.60;85.10
63017;DHT22;50274;45.640;11.756;2024-03-02T03:52:32;10.60;85.20
63017;DHT22;50274;45.640;11.756;2024-03-02T03:54:59;10.60;85.10
63017;DHT22;50274;45.640;11.756;2024-03-02T03:57:26;10.60;85.10
63017;DHT22;50274;45.640;11.756;2024-03-02T03:59:52;10.60;85.00
63017;DHT22;50274;45.640;11.756;2024-03-02T04:02:18;10.60;85.00
63017;DHT22;50274;45.640;11.756;2024-03-02T04:04:44;10.60;85.00
63017;DHT22;50274;45.640;11.756;2024-03-02T04:07:10;10.50;85.00
63017;DHT22;50274;45.640;11.756;2024-03-02T04:09:35;10.50;85.10
63017;DHT22;50274;45.640;11.756;2024-03-02T04:12:01;10.50;85.20
63017;DHT22;50274;45.640;11.756;2024-03-02T04:14:27;10.60;85.30
63017;DHT22;50274;45.640;11.756;2024-03-02T04:16:53;10.60;85.40
63017;DHT22;50274;45.640;11.756;2024-03-02T04:19:19;10.50;85.40
63017;DHT22;50274;45.640;11.756;2024-03-02T04:21:44;10.60;85.40
63017;DHT22;50274;45.640;11.756;2024-03-02T04:24:10;10.60;85.30
63017;DHT22;50274;45.640;11.756;2024-03-02T04:26:36;10.60;85.20
63017;DHT22;50274;45.640;11.756;2024-03-02T04:29:02;10.60;85.10
63017;DHT22;50274;45.640;11.756;2024-03-02T04:31:28;10.50;85.00
63017;DHT22;50274;45.640;11.756;2024-03-02T04:33:54;10.50;85.00
63017;DHT22;50274;45.640;11.756;2024-03-02T04:36:20;10.50;85.10
63017;DHT22;50274;45.640;11.756;2024-03-02T04:38:46;10.50;85.10
63017;DHT22;50274;45.640;11.756;2024-03-02T04:41:12;10.40;85.10
63017;DHT22;50274;45.640;11.756;2024-03-02T04:43:38;10.40;85.10
63017;DHT22;50274;45.640;11.756;2024-03-02T04:46:05;10.40;85.20
63017;DHT22;50274;45.640;11.756;2024-03-02T04:48:32;10.40;85.30
63017;DHT22;50274;45.640;11.756;2024-03-02T04:50:58;10.40;85.30
63017;DHT22;50274;45.640;11.756;2024-03-02T04:53:24;10.30;85.40
63017;DHT22;50274;45.640;11.756;2024-03-02T04:55:50;10.30;85.50
63017;DHT22;50274;45.640;11.756;2024-03-02T04:58:34;10.30;85.60
63017;DHT22;50274;45.640;11.756;2024-03-02T05:01:00;10.30;85.50
63017;DHT22;50274;45.640;11.756;2024-03-02T05:03:26;10.30;85.60
63017;DHT22;50274;45.640;11.756;2024-03-02T05:05:52;10.30;85.60
63017;DHT22;50274;45.640;11.756;2024-03-02T05:08:18;10.20;85.60
63017;DHT22;50274;45.640;11.756;2024-03-02T05:10:44;10.30;85.60
63017;DHT22;50274;45.640;11.756;2024-03-02T05:13:09;10.20;85.70
63017;DHT22;50274;45.640;11.756;2024-03-02T05:15:35;10.20;85.80
63017;DHT22;50274;45.640;11.756;2024-03-02T05:18:01;10.20;85.80
63017;DHT22;50274;45.640;11.756;2024-03-02T05:20:30;10.20;85.90
63017;DHT22;50274;45.640;11.756;2024-03-02T05:22:56;10.20;85.90
63017;DHT22;50274;45.640;11.756;2024-03-02T05:25:22;10.20;85.90
63017;DHT22;50274;45.640;11.756;2024-03-02T05:27:48;10.20;85.90
63017;DHT22;50274;45.640;11.756;2024-03-02T05:30:14;10.20;86.00
63017;DHT22;50274;45.640;11.756;2024-03-02T05:32:40;10.20;86.00
63017;DHT22;50274;45.640;11.756;2024-03-02T05:35:06;10.20;86.00
63017;DHT22;50274;45.640;11.756;2024-03-02T05:37:33;10.10;86.00
63017;DHT22;50274;45.640;11.756;2024-03-02T05:39:59;10.20;86.10
63017;DHT22;50274;45.640;11.756;2024-03-02T05:42:25;10.20;86.10
63017;DHT22;50274;45.640;11.756;2024-03-02T05:44:51;10.10;86.10
63017;DHT22;50274;45.640;11.756;2024-03-02T05:47:17;10.10;86.10
63017;DHT22;50274;45.640;11.756;2024-03-02T05:49:42;10.10;86.10
63017;DHT22;50274;45.640;11.756;2024-03-02T05:52:08;10.10;86.20
63017;DHT22;50274;45.640;11.756;2024-03-02T05:54:34;10.10;86.20
63017;DHT22;50274;45.640;11.756;2024-03-02T05:57:00;10.10;86.20
63017;DHT22;50274;45.640;11.756;2024-03-02T05:59:42;10.10;86.20
63017;DHT22;50274;45.640;11.756;2024-03-02T06:02:09;10.10;86.20
63017;DHT22;50274;45.640;11.756;2024-03-02T06:04:34;10.10;86.20
63017;DHT22;50274;45.640;11.756;2024-03-02T06:07:00;10.10;86.20
63017;DHT22;50274;45.640;11.756;2024-03-02T06:09:26;10.10;86.20
63017;DHT22;50274;45.640;11.756;2024-03-02T06:11:52;10.10;86.20
63017;DHT22;50274;45.640;11.756;2024-03-02T06:14:18;10.10;86.20
63017;DHT22;50274;45.640;11.756;2024-03-02T06:16:43;10.10;86.10
63017;DHT22;50274;45.640;11.756;2024-03-02T06:19:09;10.10;86.10
63017;DHT22;50274;45.640;11.756;2024-03-02T06:21:35;10.10;86.10
63017;DHT22;50274;45.640;11.756;2024-03-02T06:24:01;10.10;86.20
63017;DHT22;50274;45.640;11.756;2024-03-02T06:26:27;10.20;86.10
63017;DHT22;50274;45.640;11.756;2024-03-02T06:28:54;10.20;86.10
63017;DHT22;50274;45.640;11.756;2024-03-02T06:31:20;10.20;86.00
63017;DHT22;50274;45.640;11.756;2024-03-02T06:33:46;10.20;86.00
63017;DHT22;50274;45.640;11.756;2024-03-02T06:36:11;10.20;86.00
63017;DHT22;50274;45.640;11.756;2024-03-02T06:38:37;10.20;86.00
63017;DHT22;50274;45.640;11.756;2024-03-02T06:41:06;10.30;86.00
63017;DHT22;50274;45.640;11.756;2024-03-02T06:43:32;10.30;85.80
63017;DHT22;50274;45.640;11.756;2024-03-02T06:45:58;10.30;85.90
63017;DHT22;50274;45.640;11.756;2024-03-02T06:48:23;10.30;85.80
63017;DHT22;50274;45.640;11.756;2024-03-02T06:50:50;10.40;85.80
63017;DHT22;50274;45.640;11.756;2024-03-02T06:53:17;10.40;85.70
63017;DHT22;50274;45.640;11.756;2024-03-02T06:55:44;10.40;85.70
63017;DHT22;50274;45.640;11.756;2024-03-02T06:58:13;10.50;85.60
63017;DHT22;50274;45.640;11.756;2024-03-02T07:00:41;10.50;85.60
63017;DHT22;50274;45.640;11.756;2024-03-02T07:03:07;10.50;85.50
63017;DHT22;50274;45.640;11.756;2024-03-02T07:05:33;10.60;85.40
63017;DHT22;50274;45.640;11.756;2024-03-02T07:07:59;10.60;85.30
63017;DHT22;50274;45.640;11.756;2024-03-02T07:10:25;10.60;85.30
63017;DHT22;50274;45.640;11.756;2024-03-02T07:12:51;10.70;85.10
63017;DHT22;50274;45.640;11.756;2024-03-02T07:15:16;10.70;85.00
63017;DHT22;50274;45.640;11.756;2024-03-02T07:18:01;10.70;84.90
63017;DHT22;50274;45.640;11.756;2024-03-02T07:20:27;10.80;84.90
63017;DHT22;50274;45.640;11.756;2024-03-02T07:22:52;10.80;84.80
63017;DHT22;50274;45.640;11.756;2024-03-02T07:25:18;10.80;84.80
63017;DHT22;50274;45.640;11.756;2024-03-02T07:27:44;10.90;84.70
63017;DHT22;50274;45.640;11.756;2024-03-02T07:30:14;10.90;84.60
63017;DHT22;50274;45.640;11.756;2024-03-02T07:32:41;10.90;84.50
63017;DHT22;50274;45.640;11.756;2024-03-02T07:35:14;11.00;84.50
63017;DHT22;50274;45.640;11.756;2024-03-02T07:37:41;11.00;84.40
63017;DHT22;50274;45.640;11.756;2024-03-02T07:40:08;11.00;84.30
63017;DHT22;50274;45.640;11.756;2024-03-02T07:42:38;11.10;84.30
63017;DHT22;50274;45.640;11.756;2024-03-02T07:45:05;11.10;84.20
63017;DHT22;50274;45.640;11.756;2024-03-02T07:47:34;11.10;84.20
63017;DHT22;50274;45.640;11.756;2024-03-02T07:50:00;11.10;84.00
63017;DHT22;50274;45.640;11.756;2024-03-02T07:52:26;11.10;84.00
63017;DHT22;50274;45.640;11.756;2024-03-02T07:54:52;11.10;84.00
63017;DHT22;50274;45.640;11.756;2024-03-02T07:57:18;11.20;84.00
63017;DHT22;50274;45.640;11.756;2024-03-02T07:59:44;11.20;83.90
63017;DHT22;50274;45.640;11.756;2024-03-02T08:02:10;11.20;83.70
63017;DHT22;50274;45.640;11.756;2024-03-02T08:04:36;11.20;83.50
63017;DHT22;50274;45.640;11.756;2024-03-02T08:07:02;11.30;83.50
63017;DHT22;50274;45.640;11.756;2024-03-02T08:09:29;11.30;83.50
63017;DHT22;50274;45.640;11.756;2024-03-02T08:11:54;11.30;83.40
63017;DHT22;50274;45.640;11.756;2024-03-02T08:14:22;11.30;83.10
63017;DHT22;50274;45.640;11.756;2024-03-02T08:16:47;11.40;82.90
63017;DHT22;50274;45.640;11.756;2024-03-02T08:19:13;11.50;82.60
63017;DHT22;50274;45.640;11.756;2024-03-02T08:21:39;11.50;82.40
63017;DHT22;50274;45.640;11.756;2024-03-02T08:24:05;11.50;82.40
63017;DHT22;50274;45.640;11.756;2024-03-02T08:26:32;11.60;82.40
63017;DHT22;50274;45.640;11.756;2024-03-02T08:28:59;11.60;82.40
63017;DHT22;50274;45.640;11.756;2024-03-02T08:31:24;11.70;82.30
63017;DHT22;50274;45.640;11.756;2024-03-02T08:33:50;11.70;82.20
63017;DHT22;50274;45.640;11.756;2024-03-02T08:36:16;11.80;82.10
63017;DHT22;50274;45.640;11.756;2024-03-02T08:38:42;11.90;81.90
63017;DHT22;50274;45.640;11.756;2024-03-02T08:41:09;11.80;82.00
63017;DHT22;50274;45.640;11.756;2024-03-02T08:43:35;11.90;82.00
63017;DHT22;50274;45.640;11.756;2024-03-02T08:46:01;11.90;82.00
63017;DHT22;50274;45.640;11.756;2024-03-02T08:48:27;12.00;82.10
63017;DHT22;50274;45.640;11.756;2024-03-02T08:50:53;12.00;81.80
63017;DHT22;50274;45.640;11.756;2024-03-02T08:53:18;12.00;81.70
63017;DHT22;50274;45.640;11.756;2024-03-02T08:55:47;12.10;81.60
63017;DHT22;50274;45.640;11.756;2024-03-02T08:58:13;12.10;81.30
63017;DHT22;50274;45.640;11.756;2024-03-02T09:00:39;12.10;81.20
63017;DHT22;50274;45.640;11.756;2024-03-02T09:03:05;12.20;81.10
63017;DHT22;50274;45.640;11.756;2024-03-02T09:05:31;12.20;81.20
63017;DHT22;50274;45.640;11.756;2024-03-02T09:07:57;12.20;81.10
63017;DHT22;50274;45.640;11.756;2024-03-02T09:10:23;12.30;80.90
63017;DHT22;50274;45.640;11.756;2024-03-02T09:12:48;12.30;81.00
63017;DHT22;50274;45.640;11.756;2024-03-02T09:15:14;12.30;81.00
63017;DHT22;50274;45.640;11.756;2024-03-02T09:17:40;12.30;80.90
63017;DHT22;50274;45.640;11.756;2024-03-02T09:20:06;12.30;80.90
63017;DHT22;50274;45.640;11.756;2024-03-02T09:22:32;12.30;81.10
63017;DHT22;50274;45.640;11.756;2024-03-02T09:24:58;12.30;81.10
63017;DHT22;50274;45.640;11.756;2024-03-02T09:27:24;12.30;80.90
63017;DHT22;50274;45.640;11.756;2024-03-02T09:29:50;12.30;80.90
63017;DHT22;50274;45.640;11.756;2024-03-02T09:32:16;12.30;80.60
63017;DHT22;50274;45.640;11.756;2024-03-02T09:34:42;12.40;80.20
63017;DHT22;50274;45.640;11.756;2024-03-02T09:37:09;12.30;80.20
63017;DHT22;50274;45.640;11.756;2024-03-02T09:39:34;12.30;80.00
63017;DHT22;50274;45.640;11.756;2024-03-02T09:42:00;12.30;80.20
63017;DHT22;50274;45.640;11.756;2024-03-02T09:44:26;12.40;79.90
63017;DHT22;50274;45.640;11.756;2024-03-02T09:46:52;12.30;79.80
63017;DHT22;50274;45.640;11.756;2024-03-02T09:49:18;12.30;79.90
63017;DHT22;50274;45.640;11.756;2024-03-02T09:51:48;12.30;80.00
63017;DHT22;50274;45.640;11.756;2024-03-02T09:54:15;12.30;80.40
63017;DHT22;50274;45.640;11.756;2024-03-02T09:56:41;12.30;80.80
63017;DHT22;50274;45.640;11.756;2024-03-02T09:59:08;12.30;81.00
63017;DHT22;50274;45.640;11.756;2024-03-02T10:01:34;12.30;81.20
63017;DHT22;50274;45.640;11.756;2024-03-02T10:04:00;12.30;81.40
63017;DHT22;50274;45.640;11.756;2024-03-02T10:06:27;12.30;81.20
63017;DHT22;50274;45.640;11.756;2024-03-02T10:08:54;12.30;80.90
63017;DHT22;50274;45.640;11.756;2024-03-02T10:11:34;12.30;81.10
63017;DHT22;50274;45.640;11.756;2024-03-02T10:14:13;12.30;81.30
63017;DHT22;50274;45.640;11.756;2024-03-02T10:16:40;12.40;81.20
63017;DHT22;50274;45.640;11.756;2024-03-02T10:19:16;12.30;81.00
63017;DHT22;50274;45.640;11.756;2024-03-02T10:21:47;12.40;80.60
63017;DHT22;50274;45.640;11.756;2024-03-02T10:24:13;12.40;80.30
63017;DHT22;50274;45.640;11.756;2024-03-02T10:26:39;12.30;80.30
63017;DHT22;50274;45.640;11.756;2024-03-02T10:29:05;12.30;80.20
63017;DHT22;50274;45.640;11.756;2024-03-02T10:31:31;12.30;80.20
63017;DHT22;50274;45.640;11.756;2024-03-02T10:33:58;12.30;80.10
63017;DHT22;50274;45.640;11.756;2024-03-02T10:36:25;12.20;80.40
63017;DHT22;50274;45.640;11.756;2024-03-02T10:38:52;12.30;80.20
63017;DHT22;50274;45.640;11.756;2024-03-02T10:41:23;12.30;80.00
63017;DHT22;50274;45.640;11.756;2024-03-02T10:43:53;12.30;80.00
63017;DHT22;50274;45.640;11.756;2024-03-02T10:46:35;12.30;80.10
63017;DHT22;50274;45.640;11.756;2024-03-02T10:49:02;12.30;80.00
63017;DHT22;50274;45.640;11.756;2024-03-02T10:51:31;12.30;80.00
63017;DHT22;50274;45.640;11.756;2024-03-02T10:54:01;12.30;80.20
63017;DHT22;50274;45.640;11.756;2024-03-02T10:56:43;12.40;80.20
63017;DHT22;50274;45.640;11.756;2024-03-02T11:01:59;12.40;80.20
63017;DHT22;50274;45.640;11.756;2024-03-02T11:04:27;12.40;80.40
63017;DHT22;50274;45.640;11.756;2024-03-02T11:07:05;12.50;80.40
63017;DHT22;50274;45.640;11.756;2024-03-02T11:09:33;12.50;80.50
63017;DHT22;50274;45.640;11.756;2024-03-02T11:14:54;12.50;80.60
63017;DHT22;50274;45.640;11.756;2024-03-02T11:17:21;12.50;80.50
63017;DHT22;50274;45.640;11.756;2024-03-02T11:19:49;12.50;80.60
63017;DHT22;50274;45.640;11.756;2024-03-02T11:22:16;12.50;80.70
63017;DHT22;50274;45.640;11.756;2024-03-02T11:24:49;12.50;81.00
63017;DHT22;50274;45.640;11.756;2024-03-02T11:33:03;12.50;81.90
63017;DHT22;50274;45.640;11.756;2024-03-02T11:35:42;12.50;81.90
63017;DHT22;50274;45.640;11.756;2024-03-02T11:38:09;12.50;82.10
63017;DHT22;50274;45.640;11.756;2024-03-02T11:40:35;12.50;82.20
63017;DHT22;50274;45.640;11.756;2024-03-02T11:43:01;12.50;82.40
63017;DHT22;50274;45.640;11.756;2024-03-02T11:45:27;12.50;82.40
63017;DHT22;50274;45.640;11.756;2024-03-02T11:48:00;12.50;82.20
63017;DHT22;50274;45.640;11.756;2024-03-02T11:50:39;12.50;82.00
63017;DHT22;50274;45.640;11.756;2024-03-02T11:53:07;12.50;81.80
63017;DHT22;50274;45.640;11.756;2024-03-02T11:55:38;12.40;81.50
63017;DHT22;50274;45.640;11.756;2024-03-02T11:58:12;12.30;81.60
63017;DHT22;50274;45.640;11.756;2024-03-02T12:00:38;12.30;81.70
63017;DHT22;50274;45.640;11.756;2024-03-02T12:03:08;12.30;82.00
63017;DHT22;50274;45.640;11.756;2024-03-02T12:05:35;12.30;82.10
63017;DHT22;50274;45.640;11.756;2024-03-02T12:08:02;12.30;82.40
63017;DHT22;50274;45.640;11.756;2024-03-02T12:10:29;12.30;82.20
63017;DHT22;50274;45.640;11.756;2024-03-02T12:13:06;12.30;82.30
63017;DHT22;50274;45.640;11.756;2024-03-02T12:15:34;12.30;82.30
63017;DHT22;50274;45.640;11.756;2024-03-02T12:18:01;12.30;82.30
63017;DHT22;50274;45.640;11.756;2024-03-02T12:20:29;12.30;82.60
63017;DHT22;50274;45.640;11.756;2024-03-02T12:22:57;12.30;82.80
63017;DHT22;50274;45.640;11.756;2024-03-02T12:25:25;12.30;83.00
63017;DHT22;50274;45.640;11.756;2024-03-02T12:27:56;12.30;83.00
63017;DHT22;50274;45.640;11.756;2024-03-02T12:30:23;12.30;83.10
63017;DHT22;50274;45.640;11.756;2024-03-02T12:32:50;12.30;83.10
63017;DHT22;50274;45.640;11.756;2024-03-02T12:35:17;12.40;83.10
63017;DHT22;50274;45.640;11.756;2024-03-02T12:37:47;12.40;83.20
63017;DHT22;50274;45.640;11.756;2024-03-02T12:40:14;12.40;83.20
63017;DHT22;50274;45.640;11.756;2024-03-02T12:42:41;12.40;83.40
63017;DHT22;50274;45.640;11.756;2024-03-02T12:45:10;12.50;83.20
63017;DHT22;50274;45.640;11.756;2024-03-02T12:47:37;12.50;83.20
63017;DHT22;50274;45.640;11.756;2024-03-02T12:50:04;12.50;83.40
63017;DHT22;50274;45.640;11.756;2024-03-02T12:52:30;12.50;83.20
63017;DHT22;50274;45.640;11.756;2024-03-02T12:54:58;12.40;83.10
63017;DHT22;50274;45.640;11.756;2024-03-02T12:57:28;12.40;83.00
63017;DHT22;50274;45.640;11.756;2024-03-02T13:00:02;12.40;82.70
63017;DHT22;50274;45.640;11.756;2024-03-02T13:02:35;12.40;82.80
63017;DHT22;50274;45.640;11.756;2024-03-02T13:05:02;12.30;83.00
63017;DHT22;50274;45.640;11.756;2024-03-02T13:07:29;12.40;83.30
63017;DHT22;50274;45.640;11.756;2024-03-02T13:09:55;12.40;83.50
63017;DHT22;50274;45.640;11.756;2024-03-02T13:12:24;12.40;83.60
63017;DHT22;50274;45.640;11.756;2024-03-02T13:14:54;12.30;83.60
63017;DHT22;50274;45.640;11.756;2024-03-02T13:17:20;12.30;83.70
63017;DHT22;50274;45.640;11.756;2024-03-02T13:19:56;12.30;83.80
63017;DHT22;50274;45.640;11.756;2024-03-02T13:22:23;12.30;83.50
63017;DHT22;50274;45.640;11.756;2024-03-02T13:24:49;12.30;83.20
63017;DHT22;50274;45.640;11.756;2024-03-02T13:27:15;12.30;83.00
63017;DHT22;50274;45.640;11.756;2024-03-02T13:29:42;12.40;83.10
63017;DHT22;50274;45.640;11.756;2024-03-02T13:32:08;12.40;83.20
63017;DHT22;50274;45.640;11.756;2024-03-02T13:34:35;12.40;83.20
63017;DHT22;50274;45.640;11.756;2024-03-02T13:37:03;12.40;82.90
63017;DHT22;50274;45.640;11.756;2024-03-02T13:39:30;12.40;82.50
63017;DHT22;50274;45.640;11.756;2024-03-02T13:41:58;12.40;82.50
63017;DHT22;50274;45.640;11.756;2024-03-02T13:44:30;12.40;82.60
63017;DHT22;50274;45.640;11.756;2024-03-02T13:46:56;12.30;82.70
63017;DHT22;50274;45.640;11.756;2024-03-02T13:49:22;12.40;82.80
63017;DHT22;50274;45.640;11.756;2024-03-02T13:51:48;12.30;82.90
63017;DHT22;50274;45.640;11.756;2024-03-02T13:54:14;12.30;82.90
63017;DHT22;50274;45.640;11.756;2024-03-02T13:56:41;12.30;83.00
63017;DHT22;50274;45.640;11.756;2024-03-02T13:59:07;12.20;83.00
63017;DHT22;50274;45.640;11.756;2024-03-02T14:01:33;12.20;83.10
63017;DHT22;50274;45.640;11.756;2024-03-02T14:03:59;12.20;83.20
63017;DHT22;50274;45.640;11.756;2024-03-02T14:06:26;12.20;83.30
63017;DHT22;50274;45.640;11.756;2024-03-02T14:08:53;12.20;83.30
63017;DHT22;50274;45.640;11.756;2024-03-02T14:11:19;12.20;83.20
63017;DHT22;50274;45.640;11.756;2024-03-02T14:13:45;12.20;83.10
63017;DHT22;50274;45.640;11.756;2024-03-02T14:16:19;12.30;82.90
63017;DHT22;50274;45.640;11.756;2024-03-02T14:18:45;12.20;82.80
63017;DHT22;50274;45.640;11.756;2024-03-02T14:21:11;12.20;82.90
63017;DHT22;50274;45.640;11.756;2024-03-02T14:23:37;12.20;83.10
63017;DHT22;50274;45.640;11.756;2024-03-02T14:26:03;12.20;83.00
63017;DHT22;50274;45.640;11.756;2024-03-02T14:28:29;12.10;83.20
63017;DHT22;50274;45.640;11.756;2024-03-02T14:30:54;12.10;83.20
63017;DHT22;50274;45.640;11.756;2024-03-02T14:33:20;12.10;83.40
63017;DHT22;50274;45.640;11.756;2024-03-02T14:35:47;12.10;83.50
63017;DHT22;50274;45.640;11.756;2024-03-02T14:38:13;12.10;83.50
63017;DHT22;50274;45.640;11.756;2024-03-02T14:40:38;12.10;83.60
63017;DHT22;50274;45.640;11.756;2024-03-02T14:43:04;12.00;83.60
63017;DHT22;50274;45.640;11.756;2024-03-02T14:45:30;12.00;83.70
63017;DHT22;50274;45.640;11.756;2024-03-02T14:47:56;12.00;83.80
63017;DHT22;50274;45.640;11.756;2024-03-02T14:50:26;12.00;83.90
63017;DHT22;50274;45.640;11.756;2024-03-02T14:52:52;12.00;84.00
63017;DHT22;50274;45.640;11.756;2024-03-02T14:55:18;12.00;84.10
63017;DHT22;50274;45.640;11.756;2024-03-02T14:57:44;12.00;84.20
63017;DHT22;50274;45.640;11.756;2024-03-02T15:00:10;12.00;84.20
63017;DHT22;50274;45.640;11.756;2024-03-02T15:02:37;11.90;84.30
63017;DHT22;50274;45.640;11.756;2024-03-02T15:05:04;11.90;84.40
63017;DHT22;50274;45.640;11.756;2024-03-02T15:07:31;11.90;84.40
63017;DHT22;50274;45.640;11.756;2024-03-02T15:09:57;12.00;84.50
63017;DHT22;50274;45.640;11.756;2024-03-02T15:12:23;11.90;84.60
63017;DHT22;50274;45.640;11.756;2024-03-02T15:14:49;12.00;84.60
63017;DHT22;50274;45.640;11.756;2024-03-02T15:17:15;12.00;84.70
63017;DHT22;50274;45.640;11.756;2024-03-02T15:19:45;12.00;84.70
63017;DHT22;50274;45.640;11.756;2024-03-02T15:22:11;12.00;84.80
63017;DHT22;50274;45.640;11.756;2024-03-02T15:24:38;12.00;84.70
63017;DHT22;50274;45.640;11.756;2024-03-02T15:27:05;12.00;84.80
63017;DHT22;50274;45.640;11.756;2024-03-02T15:29:32;12.00;84.80